Wednesday, October 18, 2017, 3:42 AM EDT
Back to Local

KIPT, Williamsport-lycoming County

Location: Montoursville, PA, United States Lat: 41.25
Local Time: 3:42 AM EDT ( 7:42 GMT) Lon: -76.917
Time Zone: US/Eastern Elev: 528 ft

Show me the last for .
Show Decoded

2017-10-18 02:54 METAR KIPT 180654Z AUTO 00000KT 10SM CLR 06/04 A3029 RMK AO2 SLP258 T00560044 =
2017-10-18 01:54 METAR KIPT 180554Z AUTO 00000KT 10SM CLR 06/04 A3030 RMK AO2 SLP261 T00560039
                 10106 20056 51009 =
2017-10-18 00:54 METAR KIPT 180454Z AUTO 00000KT 10SM CLR 06/04 A3029 RMK AO2 SLP259 T00610044
                 401780011 =
2017-10-17 23:54 METAR KIPT 180354Z AUTO 00000KT 10SM CLR 07/05 A3028 RMK AO2 SLP256 T00720050 =
2017-10-17 22:54 METAR KIPT 180254Z AUTO 00000KT 10SM CLR 07/05 A3027 RMK AO2 SLP252 T00720050
                 53014 =
2017-10-17 21:54 METAR KIPT 180154Z 00000KT 10SM CLR 08/05 A3026 RMK AO2 SLP249 T00780050 =
2017-10-17 20:54 METAR KIPT 180054Z 00000KT 10SM CLR 09/05 A3023 RMK AO2 SLP241 T00940050 =
2017-10-17 19:54 METAR KIPT 172354Z 34003KT 10SM CLR 11/06 A3023 RMK AO2 SLP238 T01110056 10178
                 20106 53005 =
2017-10-17 18:54 METAR KIPT 172254Z 06004KT 10SM CLR 12/05 A3021 RMK AO2 SLP234 T01220050 =
2017-10-17 17:54 METAR KIPT 172154Z 00000KT 10SM CLR 14/06 A3021 RMK AO2 SLP232 T01440056 =
2017-10-17 16:54 METAR KIPT 172054Z 24006KT 10SM CLR 17/03 A3021 RMK AO2 SLP233 T01720028 56019 =
2017-10-17 15:54 METAR KIPT 171954Z 29007KT 10SM CLR 18/01 A3023 RMK AO2 SLP238 T01780011 =
2017-10-17 14:54 METAR KIPT 171854Z VRB03KT 10SM CLR 16/03 A3024 RMK AO2 SLP242 T01610028 =
2017-10-17 13:54 METAR KIPT 171754Z 13003KT 10SM CLR 14/03 A3027 RMK AO2 SLP252 T01440028 10150
                 20022 58027 =
2017-10-17 12:54 METAR KIPT 171654Z VRB03KT 10SM CLR 12/03 A3031 RMK AO2 SLP265 T01220033 =
2017-10-17 11:54 METAR KIPT 171554Z 00000KT 10SM CLR 11/03 A3034 RMK AO2 SLP275 T01060028 =
2017-10-17 10:54 METAR KIPT 171454Z 00000KT 10SM CLR 09/03 A3035 RMK AO2 SLP280 T00890033 50000 =
2017-10-17 09:54 METAR KIPT 171354Z 00000KT 10SM CLR 06/03 A3037 RMK AO2 SLP286 T00610033 =
2017-10-17 09:28 METAR KIPT 171328Z 23004KT 10SM SCT006 05/03 A3037 RMK AO2 T00500028 =
2017-10-17 08:54 METAR KIPT 171254Z 30004KT 10SM OVC006 04/02 A3037 RMK AO2 SLP288 T00390022 =
2017-10-17 07:54 METAR KIPT 171154Z 00000KT 10SM OVC006 02/01 A3035 RMK AO2 SLP281 T00220006
                 10039 20011 53005 =
2017-10-17 07:11 METAR KIPT 171111Z 00000KT 10SM BKN006 02/00 A3034 RMK AO2 T00170000 =
2017-10-17 06:54 METAR KIPT 171054Z 00000KT 10SM SCT006 02/01 A3034 RMK AO2 SLP277 T00170006 =
2017-10-17 06:50 METAR KIPT 171050Z 00000KT 10SM SCT006 02/01 A3034 RMK AO2 =
2017-10-17 05:54 METAR KIPT 170954Z AUTO 00000KT 10SM CLR 02/01 A3033 RMK AO2 SLP275 T00170006 =
2017-10-17 04:54 METAR KIPT 170854Z AUTO 00000KT 10SM CLR 02/01 A3032 RMK AO2 SLP268 T00220011
                 53011 =
2017-10-17 03:54 METAR KIPT 170754Z AUTO 36003KT 10SM CLR 02/01 A3030 RMK AO2 SLP261 T00220011 =

Support USWX by starting your Amazon purchase here.